aviador You're here:

KAIZ Decoded Metar

KAISER MEM in MO, USA
Report Time2018-06-19 05:56:00
UTC Time2018-06-19 06:41:56
Flight Rules vfr VFR
Wind160° at 05 kt
W.Decomp.*RWY 22: 2.5 kt HW 4.3 kt LCW
W.Rank160° ranks 2
Current wind is below 160° avg. (6.0)
Visibility9999 m
Phenomena:N/A
Clouds:N/A
Expected CloudBase > 1,200 ft AGL from Temp-Dew spread
CeilingNone
Temp24°C (ISA +11)
Dew Point21°C (83% RH)
QNH1017 hPa
Density Alt2,310 ft
Elevation869 ft
Report Wrong Elevation
Raw Report
KAIZ 190556Z AUTO 16005KT 10SM CLR 24/21 A3002 RMK AO2 SLP156
T02440211 10317 20244 403330233 58001=

Extra information for KAIZ:More info

Metar Taf Metar & Taf Last 4 Metars F.Rules Stats Wind Profile Meteogram Temp Stats Airport Information Weather charts Add Link Nearby VenuesMetar ALERT Operation Metar Decoded Social comments

AIRNAV info for KAIZ